Time;durP1;ratioP1;P1;durP2;ratioP2;P2;SDS_P1;SDS_P2;PMS_P1;PMS_P2;Temp;Humidity;BMP_temperature;BMP_pressure;BME280_temperature;BME280_humidity;BME280_pressure;Samples;Min_cycle;Max_cycle;Signal;HPM_P1;HPM_P2
2023/07/31 00:00:26;;;;;;;1.63;1.40;;;;;;;20.92;50.52;95906.19;5114080;28;20092;-66
2023/07/31 00:02:54;;;;;;;3.17;1.60;;;;;;;20.90;50.83;95901.00;5113957;28;20139;-67
2023/07/31 00:05:21;;;;;;;1.40;1.30;;;;;;;20.94;51.31;95909.50;5113717;28;20055;-68
2023/07/31 00:07:48;;;;;;;1.88;1.50;;;;;;;20.99;51.14;95909.97;5113931;28;20437;-67
2023/07/31 00:10:15;;;;;;;1.70;1.50;;;;;;;21.02;51.16;95900.84;5113834;28;20409;-67
2023/07/31 00:12:46;;;;;;;1.55;1.45;;;;;;;20.99;50.86;95894.00;5113795;28;20142;-66
2023/07/31 00:15:14;;;;;;;;;;;;;;;20.97;51.16;95882.66;5114216;28;20108;-67
2023/07/31 00:17:41;;;;;;;1.58;1.48;;;;;;;20.99;51.13;95885.19;5113674;28;19919;-67
2023/07/31 00:20:09;;;;;;;2.58;1.70;;;;;;;20.93;51.02;95874.16;5113746;28;20501;-66
2023/07/31 00:22:37;;;;;;;2.20;1.63;;;;;;;20.97;51.55;95877.34;5113635;28;20105;-66
2023/07/31 00:25:06;;;;;;;3.05;1.38;;;;;;;20.96;51.48;95865.88;5113551;28;20055;-67
2023/07/31 00:27:33;;;;;;;3.65;1.60;;;;;;;21.06;51.36;95865.88;5113498;28;20048;-66
2023/07/31 00:30:01;;;;;;;2.03;1.40;;;;;;;21.07;50.68;95858.75;5113508;28;20138;-67
2023/07/31 00:32:28;;;;;;;1.98;1.35;;;;;;;21.11;51.17;95873.44;5113515;28;20046;-68
2023/07/31 00:34:55;;;;;;;3.63;1.70;;;;;;;21.12;50.68;95868.94;5113635;28;20122;-66
2023/07/31 00:37:23;;;;;;;2.45;1.27;;;;;;;21.15;50.58;95860.69;5113601;28;20050;-68
2023/07/31 00:39:49;;;;;;;3.97;1.40;;;;;;;21.16;50.30;95865.03;5113609;28;20105;-67
2023/07/31 00:42:16;;;;;;;2.72;1.60;;;;;;;21.15;50.70;95858.88;5113495;28;20126;-65
2023/07/31 00:44:43;;;;;;;1.70;1.60;;;;;;;21.06;50.57;95860.56;5113444;28;20055;-68
2023/07/31 00:47:12;;;;;;;2.15;1.52;;;;;;;21.15;50.35;95855.38;5113363;28;20550;-67
2023/07/31 00:49:39;;;;;;;2.58;1.90;;;;;;;21.14;50.32;95859.00;5113370;28;20048;-67
2023/07/31 00:52:07;;;;;;;4.45;1.95;;;;;;;21.12;49.83;95848.53;5113363;28;20075;-67
2023/07/31 00:54:35;;;;;;;2.10;1.55;;;;;;;21.10;50.01;95853.13;5113286;28;20566;-67
2023/07/31 00:57:02;;;;;;;2.70;1.45;;;;;;;21.11;50.56;95844.19;5113245;28;20048;-67
2023/07/31 00:59:29;;;;;;;4.20;1.40;;;;;;;21.06;50.37;95851.75;5113251;28;20131;-67
2023/07/31 01:01:56;;;;;;;2.40;1.40;;;;;;;21.10;50.67;95850.47;5113367;28;20086;-67
2023/07/31 01:04:25;;;;;;;2.88;1.83;;;;;;;21.04;50.54;95848.41;5113006;28;20058;-66
2023/07/31 01:07:01;;;;;;;3.50;1.60;;;;;;;21.04;50.51;95849.22;5113265;28;20051;-66
2023/07/31 01:09:36;;;;;;;3.15;2.08;;;;;;;20.98;50.82;95851.63;5113120;28;20083;-67
2023/07/31 01:12:05;;;;;;;2.63;1.73;;;;;;;20.98;51.69;95841.00;5113086;28;20040;-66
2023/07/31 01:14:32;;;;;;;2.92;2.30;;;;;;;21.01;52.12;95843.38;5113171;28;20387;-66
2023/07/31 01:16:59;;;;;;;3.85;2.15;;;;;;;21.01;52.47;95848.69;5113227;28;20138;-67
2023/07/31 01:19:29;;;;;;;5.68;2.22;;;;;;;20.96;53.17;95839.28;5113169;28;20051;-66
2023/07/31 01:22:17;;;;;;;3.33;2.30;;;;;;;21.02;53.50;95837.06;5113282;28;20101;-66
2023/07/31 01:25:01;;;;;;;2.78;2.47;;;;;;;21.01;54.23;95836.22;5113046;28;20047;-66
2023/07/31 01:27:36;;;;;;;3.45;2.90;;;;;;;20.94;55.53;95841.25;5113024;28;20043;-66
2023/07/31 01:30:10;;;;;;;3.55;3.25;;;;;;;21.04;55.06;95837.78;5115572;28;20047;-65
2023/07/31 01:32:40;;;;;;;3.05;2.50;;;;;;;21.12;55.46;95845.00;5116811;28;20043;-66
2023/07/31 01:35:08;;;;;;;3.75;3.22;;;;;;;21.17;55.70;95840.13;5116831;28;20051;-67
2023/07/31 01:37:35;;;;;;;3.10;2.80;;;;;;;21.21;55.66;95837.03;5116664;28;20051;-67
2023/07/31 01:40:03;;;;;;;11.02;3.83;;;;;;;21.27;55.63;95837.44;5116644;28;20051;-68
2023/07/31 01:42:31;;;;;;;3.20;2.90;;;;;;;21.32;56.05;95844.03;5116725;28;20058;-67
2023/07/31 01:44:58;;;;;;;4.22;3.80;;;;;;;21.37;56.57;95842.75;5116779;28;20097;-66
2023/07/31 01:47:25;;;;;;;4.03;3.20;;;;;;;21.38;56.96;95847.94;5116511;28;20058;-66
2023/07/31 01:49:53;;;;;;;4.50;4.10;;;;;;;21.42;57.38;95848.47;5116432;28;20138;-67
2023/07/31 01:52:20;;;;;;;4.90;4.10;;;;;;;21.47;57.19;95843.56;5116489;28;20051;-66
2023/07/31 01:54:47;;;;;;;4.53;4.10;;;;;;;21.56;57.41;95849.84;5116490;28;20079;-66
2023/07/31 01:57:14;;;;;;;4.57;4.13;;;;;;;21.59;57.79;95850.38;5116432;28;20126;-68
2023/07/31 01:59:42;;;;;;;5.28;3.92;;;;;;;21.65;57.62;95861.44;5116305;28;20139;-67
2023/07/31 02:02:09;;;;;;;4.47;4.07;;;;;;;21.69;58.58;95868.16;5116344;28;20047;-67
2023/07/31 02:04:38;;;;;;;4.63;4.10;;;;;;;21.71;58.43;95864.34;5116047;28;20043;-66
2023/07/31 02:07:06;;;;;;;7.32;3.90;;;;;;;21.71;57.99;95867.00;5116182;28;20383;-67
2023/07/31 02:09:33;;;;;;;6.32;4.53;;;;;;;21.72;58.80;95862.53;5116188;28;20056;-66
2023/07/31 02:12:00;;;;;;;6.93;4.65;;;;;;;21.73;58.41;95860.72;5116144;28;20048;-66
2023/07/31 02:14:27;;;;;;;4.65;4.25;;;;;;;21.68;58.57;95861.16;5115914;28;20085;-66
2023/07/31 02:16:55;;;;;;;4.30;4.00;;;;;;;21.69;57.69;95863.69;5115943;28;20051;-67
2023/07/31 02:19:22;;;;;;;5.47;4.97;;;;;;;21.70;59.36;95857.38;5115972;28;20481;-67
2023/07/31 02:21:49;;;;;;;5.32;4.93;;;;;;;21.67;59.92;95862.16;5115893;28;20051;-67
2023/07/31 02:24:17;;;;;;;6.57;4.22;;;;;;;21.61;59.66;95858.22;5115855;28;20413;-66
2023/07/31 02:26:44;;;;;;;5.63;4.82;;;;;;;21.57;59.74;95860.34;5115786;28;20101;-66
2023/07/31 02:29:11;;;;;;;6.20;5.18;;;;;;;21.52;59.97;95864.44;5115709;28;20055;-67
2023/07/31 02:31:38;;;;;;;9.38;5.47;;;;;;;21.46;60.25;95866.66;5115712;28;20051;-65
2023/07/31 02:34:07;;;;;;;4.90;4.50;;;;;;;21.43;60.33;95868.78;5115714;28;20050;-66
2023/07/31 02:36:34;;;;;;;5.07;4.63;;;;;;;21.36;60.60;95860.53;5115655;28;20048;-67
2023/07/31 02:39:01;;;;;;;5.63;4.95;;;;;;;21.32;60.64;95860.00;5115535;28;20504;-67
2023/07/31 02:41:28;;;;;;;5.72;4.82;;;;;;;21.17;61.10;95864.06;5114358;28;20409;-67
2023/07/31 02:43:55;;;;;;;5.45;4.95;;;;;;;21.09;61.38;95859.44;5115477;28;20043;-66
2023/07/31 02:46:24;;;;;;;11.18;5.30;;;;;;;21.01;61.24;95861.97;5115405;28;20051;-67
2023/07/31 02:48:51;;;;;;;5.55;4.40;;;;;;;20.95;61.32;95868.69;5115399;28;20063;-66
2023/07/31 02:51:21;;;;;;;4.82;4.32;;;;;;;20.84;61.33;95867.78;5115385;28;20043;-67
2023/07/31 02:53:48;;;;;;;9.60;5.00;;;;;;;20.81;61.73;95870.75;5115328;28;20044;-66
2023/07/31 02:56:15;;;;;;;5.90;5.30;;;;;;;20.72;61.79;95876.88;5115232;28;20087;-66
2023/07/31 02:58:42;;;;;;;6.75;5.00;;;;;;;20.63;61.60;95872.41;5115085;28;20058;-67
2023/07/31 03:01:09;;;;;;;5.93;5.43;;;;;;;20.60;62.36;95884.16;5115192;28;20055;-67
2023/07/31 03:03:36;;;;;;;5.63;5.13;;;;;;;20.51;62.06;95888.47;5115057;28;20079;-66
2023/07/31 03:06:04;;;;;;;5.60;4.90;;;;;;;20.47;62.16;95881.75;5114790;28;20147;-68
2023/07/31 03:08:32;;;;;;;5.75;5.25;;;;;;;20.38;62.33;95879.91;5114723;28;20083;-66
2023/07/31 03:10:59;;;;;;;5.95;5.45;;;;;;;20.23;62.43;95874.97;5114751;28;20047;-66
2023/07/31 03:13:26;;;;;;;6.85;5.38;;;;;;;20.17;63.15;95870.22;5115017;28;20568;-66
2023/07/31 03:15:53;;;;;;;5.90;5.30;;;;;;;20.03;63.05;95874.06;5114920;28;20083;-66
2023/07/31 03:18:22;;;;;;;5.95;5.38;;;;;;;19.94;63.77;95875.66;5114769;28;20093;-66
2023/07/31 03:20:49;;;;;;;9.18;5.45;;;;;;;19.91;63.73;95881.25;5114805;28;20542;-67
2023/07/31 03:23:16;;;;;;;5.93;5.10;;;;;;;19.85;63.85;95887.06;5114773;28;20086;-67
2023/07/31 03:25:57;;;;;;;5.55;5.05;;;;;;;19.77;64.24;95880.63;5114729;28;20136;-66
2023/07/31 03:28:24;;;;;;;4.78;4.38;;;;;;;19.64;63.83;95883.50;5114651;28;20094;-65
2023/07/31 03:30:52;;;;;;;8.82;4.63;;;;;;;19.53;64.15;95880.88;5114591;28;20151;-67
2023/07/31 03:33:19;;;;;;;7.00;4.50;;;;;;;19.52;64.72;95879.22;5114484;28;20098;-67
2023/07/31 03:35:46;;;;;;;5.47;4.82;;;;;;;19.54;64.91;95878.09;5114539;28;20055;-65
2023/07/31 03:38:13;;;;;;;7.55;5.07;;;;;;;19.58;64.86;95884.00;5114565;28;20049;-67
2023/07/31 03:40:40;;;;;;;4.65;4.25;;;;;;;19.61;64.88;95889.06;5114354;28;20554;-67
2023/07/31 03:43:09;;;;;;;4.55;4.15;;;;;;;19.61;64.71;95885.56;5114254;28;20055;-66
2023/07/31 03:45:36;;;;;;;4.47;4.10;;;;;;;19.65;64.13;95884.31;5114247;28;20503;-67
2023/07/31 03:48:04;;;;;;;5.60;5.10;;;;;;;19.72;64.66;95888.16;5114121;28;20052;-67
2023/07/31 03:50:32;;;;;;;4.95;4.50;;;;;;;19.79;65.06;95885.78;5114021;28;20047;-67
2023/07/31 03:52:59;;;;;;;4.60;4.15;;;;;;;19.81;63.55;95883.84;5113799;28;20052;-66
2023/07/31 03:55:26;;;;;;;5.35;4.43;;;;;;;19.88;64.28;95890.31;5114062;28;20051;-65
2023/07/31 03:57:53;;;;;;;5.65;4.60;;;;;;;19.98;63.86;95889.53;5114086;28;20497;-67
2023/07/31 04:00:22;;;;;;;7.50;4.63;;;;;;;20.06;64.43;95887.06;5114124;28;20086;-67
2023/07/31 04:02:49;;;;;;;5.18;3.67;;;;;;;20.13;64.74;95890.00;5113996;28;20232;-66
2023/07/31 04:05:17;;;;;;;4.18;3.78;;;;;;;20.17;64.04;95884.28;5113616;28;20075;-68
2023/07/31 04:07:44;;;;;;;4.88;3.95;;;;;;;20.30;64.46;95891.19;5113911;28;20047;-67
2023/07/31 04:10:11;;;;;;;4.15;3.75;;;;;;;20.35;65.00;95893.44;5113728;28;20140;-67
2023/07/31 04:12:38;;;;;;;5.97;4.13;;;;;;;20.42;64.78;95891.94;5113796;28;20440;-67
2023/07/31 04:15:06;;;;;;;5.00;3.90;;;;;;;20.48;63.76;95901.16;5113971;28;20051;-66
2023/07/31 04:17:35;;;;;;;6.25;4.30;;;;;;;20.59;64.40;95895.75;5113758;28;20071;-65
2023/07/31 04:20:04;;;;;;;5.18;4.00;;;;;;;20.65;64.87;95897.84;5113729;28;20047;-67
2023/07/31 04:22:31;;;;;;;4.03;3.72;;;;;;;20.71;63.67;95902.59;5113594;28;20079;-67
2023/07/31 04:24:59;;;;;;;4.55;4.10;;;;;;;20.81;63.83;95902.63;5113591;28;20050;-66
2023/07/31 04:27:26;;;;;;;4.38;3.97;;;;;;;20.90;65.25;95902.81;5113487;28;20508;-67
2023/07/31 04:29:53;;;;;;;4.32;3.92;;;;;;;20.79;64.64;95895.75;5113416;28;20379;-67
2023/07/31 04:32:21;;;;;;;5.18;3.97;;;;;;;20.81;64.16;95899.97;5113540;28;20044;-67
2023/07/31 04:34:49;;;;;;;4.18;3.78;;;;;;;20.88;63.64;95899.41;5113686;28;20075;-66
2023/07/31 04:37:16;;;;;;;5.75;4.15;;;;;;;20.89;62.90;95909.91;5113600;28;20486;-67
2023/07/31 04:39:44;;;;;;;7.40;4.38;;;;;;;20.90;63.71;95908.13;5113538;28;20116;-67
2023/07/31 04:42:11;;;;;;;5.15;3.85;;;;;;;20.89;64.82;95901.94;5113519;28;20086;-66
2023/07/31 04:44:38;;;;;;;6.03;4.20;;;;;;;20.79;62.58;95914.38;5113443;28;20047;-66
2023/07/31 04:47:06;;;;;;;4.78;4.30;;;;;;;20.70;63.20;95919.53;5113298;28;20079;-67
2023/07/31 04:49:34;;;;;;;9.07;4.65;;;;;;;20.77;63.96;95925.13;5113314;28;20133;-66
2023/07/31 04:52:02;;;;;;;7.53;5.18;;;;;;;20.79;64.61;95917.03;5113378;28;20039;-66
2023/07/31 04:54:30;;;;;;;6.32;4.97;;;;;;;20.91;64.63;95928.41;5113379;28;20047;-67
2023/07/31 04:56:57;;;;;;;6.15;5.00;;;;;;;20.92;65.88;95932.75;5113434;28;20048;-66
2023/07/31 04:59:24;;;;;;;5.70;5.10;;;;;;;20.89;65.17;95933.81;5113357;28;20054;-67
2023/07/31 05:01:51;;;;;;;7.93;4.85;;;;;;;20.89;66.05;95933.81;5113217;28;20047;-67
2023/07/31 05:04:18;;;;;;;5.28;4.78;;;;;;;20.99;65.26;95941.00;5114435;28;20051;-66
2023/07/31 05:06:45;;;;;;;6.90;5.10;;;;;;;21.03;65.95;95945.91;5117331;28;20048;-67
2023/07/31 05:09:14;;;;;;;4.97;4.47;;;;;;;21.10;65.72;95953.34;5117329;28;20054;-67
2023/07/31 05:11:42;;;;;;;7.18;5.45;;;;;;;21.11;65.09;95949.69;5117211;28;20405;-66
2023/07/31 05:14:10;;;;;;;4.85;4.38;;;;;;;21.12;65.28;95952.22;5117368;28;20116;-65
2023/07/31 05:16:37;;;;;;;5.57;4.72;;;;;;;21.12;65.15;95951.34;5117301;28;20040;-66
2023/07/31 05:19:04;;;;;;;8.52;4.40;;;;;;;21.13;65.44;95956.53;5117119;28;20040;-65
2023/07/31 05:21:31;;;;;;;6.55;4.13;;;;;;;21.11;64.77;95953.19;5117109;28;20071;-66
2023/07/31 05:23:59;;;;;;;4.82;4.18;;;;;;;21.11;64.79;95955.00;5117084;28;20121;-66
2023/07/31 05:26:27;;;;;;;7.72;4.78;;;;;;;21.15;65.97;95959.91;5116929;28;20401;-66
2023/07/31 05:28:54;;;;;;;5.78;4.57;;;;;;;21.19;66.87;95963.97;5117018;28;20606;-65
2023/07/31 05:31:22;;;;;;;5.93;4.85;;;;;;;21.25;66.83;95967.06;5117000;28;20481;-66
2023/07/31 05:33:50;;;;;;;5.53;4.93;;;;;;;21.27;68.08;95968.59;5116922;28;20480;-65
2023/07/31 05:36:18;;;;;;;7.05;5.45;;;;;;;21.20;69.96;95976.28;5116746;28;20097;-66
2023/07/31 05:38:45;;;;;;;7.00;4.88;;;;;;;21.15;70.06;95975.00;5116717;28;20481;-65
2023/07/31 05:41:14;;;;;;;6.95;5.40;;;;;;;21.10;72.28;95972.75;5116537;28;20044;-66
2023/07/31 05:43:43;;;;;;;6.90;5.25;;;;;;;21.01;70.88;95973.63;5116707;28;20047;-65
2023/07/31 05:46:12;;;;;;;9.23;5.10;;;;;;;20.98;72.78;95977.38;5116619;28;20051;-65
2023/07/31 05:48:40;;;;;;;7.45;5.45;;;;;;;20.95;72.68;95988.28;5116460;28;20050;-65
2023/07/31 05:51:13;;;;;;;5.95;5.35;;;;;;;20.89;71.84;95986.16;5116461;28;20086;-66
2023/07/31 05:53:43;;;;;;;7.60;5.68;;;;;;;20.84;74.00;95984.72;5116603;28;20043;-65
2023/07/31 05:56:12;;;;;;;9.43;5.80;;;;;;;20.63;74.60;95991.94;5116367;28;20474;-66
2023/07/31 05:58:41;;;;;;;6.70;6.00;;;;;;;20.45;75.51;96016.47;5116476;28;20503;-66
2023/07/31 06:01:09;;;;;;;9.20;6.32;;;;;;;20.44;76.61;96014.81;5116343;28;20051;-66
2023/07/31 06:03:36;;;;;;;15.50;7.10;;;;;;;20.51;78.62;96015.09;5116235;28;20062;-66
2023/07/31 06:06:05;;;;;;;7.53;6.05;;;;;;;20.54;79.44;96022.81;5116068;28;20109;-66
2023/07/31 06:08:34;;;;;;;11.68;7.28;;;;;;;20.53;79.87;96023.78;5116287;28;20102;-66
2023/07/31 06:11:02;;;;;;;8.45;5.93;;;;;;;20.49;79.17;96027.66;5116024;28;20054;-65
2023/07/31 06:13:32;;;;;;;7.75;6.18;;;;;;;20.43;78.58;96032.56;5116056;28;20048;-65
2023/07/31 06:16:04;;;;;;;;;;;;;;;20.36;78.08;96039.38;5116323;28;20044;-65
2023/07/31 06:18:34;;;;;;;6.00;5.40;;;;;;;20.16;77.86;96027.78;5115895;28;20255;-65
2023/07/31 06:21:02;;;;;;;7.47;6.00;;;;;;;20.00;78.46;96021.09;5116016;28;20053;-65
2023/07/31 06:23:29;;;;;;;8.35;5.55;;;;;;;20.03;78.50;96025.34;5115833;28;20104;-65
2023/07/31 06:25:56;;;;;;;7.63;4.97;;;;;;;20.06;77.83;96022.44;5115893;28;20497;-65
2023/07/31 06:28:30;;;;;;;6.85;5.78;;;;;;;20.16;78.58;96031.28;5115810;28;20412;-65
2023/07/31 06:30:57;;;;;;;7.93;6.28;;;;;;;20.24;79.56;96032.44;5115698;28;20069;-65
2023/07/31 06:33:26;;;;;;;10.85;6.40;;;;;;;20.33;80.95;96044.94;5115751;28;20054;-65
2023/07/31 06:35:55;;;;;;;6.68;5.97;;;;;;;20.34;80.87;96038.66;5115763;28;20047;-65
2023/07/31 06:38:31;;;;;;;8.15;6.53;;;;;;;20.36;80.79;96039.38;5115529;28;20081;-65
2023/07/31 06:40:59;;;;;;;26.42;6.63;;;;;;;20.39;80.80;96038.25;5115583;28;20051;-65
2023/07/31 06:43:26;;;;;;;8.05;6.78;;;;;;;20.43;79.48;96039.66;5115441;28;20444;-65
2023/07/31 06:45:57;;;;;;;6.70;6.00;;;;;;;20.44;79.43;96039.53;5115491;28;20051;-66
2023/07/31 06:48:25;;;;;;;9.02;6.30;;;;;;;20.52;78.01;96032.72;5115391;28;20043;-66
2023/07/31 06:50:54;;;;;;;9.77;6.07;;;;;;;20.64;79.82;96036.13;5115414;28;20055;-66
2023/07/31 06:53:22;;;;;;;7.15;6.43;;;;;;;20.78;80.26;96035.78;5115300;28;20401;-67
2023/07/31 06:55:51;;;;;;;7.35;5.97;;;;;;;20.90;80.16;96030.38;5115255;28;20378;-65
2023/07/31 06:58:21;;;;;;;7.53;6.63;;;;;;;20.92;79.09;96039.06;5115271;28;20118;-66
2023/07/31 07:00:50;;;;;;;8.65;7.03;;;;;;;20.92;78.77;96036.41;5115107;28;20047;-66
2023/07/31 07:03:20;;;;;;;10.75;6.55;;;;;;;20.98;79.89;96033.19;5115033;28;20047;-66
2023/07/31 07:05:47;;;;;;;12.18;6.70;;;;;;;21.11;79.24;96032.09;5114847;28;20051;-66
2023/07/31 07:08:16;;;;;;;13.00;6.72;;;;;;;21.35;79.03;96021.09;5115082;28;20122;-66
2023/07/31 07:10:44;;;;;;;7.95;6.93;;;;;;;21.51;79.03;96031.19;5114794;28;20085;-64
2023/07/31 07:13:13;;;;;;;7.38;6.57;;;;;;;21.73;75.91;96031.88;5115396;28;20130;-66
2023/07/31 07:15:41;;;;;;;6.53;5.93;;;;;;;21.97;77.49;96027.94;5114792;28;20472;-65
2023/07/31 07:18:11;;;;;;;7.47;6.57;;;;;;;22.20;76.37;96023.16;5114623;28;20048;-65
2023/07/31 07:20:38;;;;;;;6.88;6.20;;;;;;;22.43;76.33;96025.44;5114607;28;20054;-65
2023/07/31 07:23:09;;;;;;;8.55;6.38;;;;;;;22.70;75.88;96023.84;5114778;28;20105;-64
2023/07/31 07:25:40;;;;;;;;;;;;;;;23.10;74.95;96021.84;5115133;28;20044;-66
2023/07/31 07:28:10;;;;;;;8.00;5.68;;;;;;;23.47;72.52;96021.88;5114052;28;20361;-64
2023/07/31 07:30:39;;;;;;;6.82;6.03;;;;;;;23.83;72.69;96037.03;5114574;28;20087;-65
2023/07/31 07:33:07;;;;;;;9.40;5.95;;;;;;;24.13;72.06;96036.75;5114535;28;20040;-67
2023/07/31 07:35:35;;;;;;;8.95;6.18;;;;;;;24.50;69.09;96033.00;5114618;28;20451;-65
2023/07/31 07:38:03;;;;;;;7.97;5.78;;;;;;;25.12;67.80;96031.16;5114510;28;20055;-65
2023/07/31 07:40:30;;;;;;;7.05;6.15;;;;;;;25.39;70.83;96031.03;5114417;28;20054;-67
2023/07/31 07:43:00;;;;;;;6.75;5.97;;;;;;;25.43;67.50;96035.91;5114317;28;20094;-67
2023/07/31 07:45:27;;;;;;;6.13;5.45;;;;;;;25.55;61.94;96032.94;5114209;28;20108;-67
2023/07/31 07:47:54;;;;;;;5.70;5.18;;;;;;;26.03;62.37;96033.13;5114268;28;20043;-65
2023/07/31 07:50:22;;;;;;;7.43;6.28;;;;;;;26.32;66.46;96034.47;5114299;28;20048;-67
2023/07/31 07:52:49;;;;;;;8.15;6.07;;;;;;;26.83;65.31;96032.50;5114186;28;20130;-65
2023/07/31 07:55:18;;;;;;;6.13;5.63;;;;;;;27.33;64.83;96034.97;5114144;28;20052;-66
2023/07/31 07:57:45;;;;;;;8.20;5.88;;;;;;;27.84;63.01;96025.59;5114016;28;20447;-65
2023/07/31 08:00:14;;;;;;;5.55;5.00;;;;;;;27.97;57.54;96035.72;5114083;28;20043;-65
2023/07/31 08:02:41;;;;;;;8.25;5.20;;;;;;;28.03;58.58;96028.78;5113934;28;20048;-66
2023/07/31 08:05:09;;;;;;;10.18;5.32;;;;;;;27.95;58.57;96035.06;5113631;28;20044;-65
2023/07/31 08:07:37;;;;;;;7.68;5.85;;;;;;;27.87;57.56;96034.13;5114068;28;20086;-67
2023/07/31 08:10:04;;;;;;;7.80;5.18;;;;;;;27.90;57.77;96029.41;5113836;28;20401;-67
2023/07/31 08:12:32;;;;;;;5.40;4.90;;;;;;;27.96;56.63;96024.13;5113729;28;20074;-65
2023/07/31 08:14:59;;;;;;;7.47;4.85;;;;;;;28.00;55.75;96019.25;5113848;28;20100;-65
2023/07/31 08:17:28;;;;;;;5.20;4.80;;;;;;;28.05;56.77;96027.59;5113710;28;20047;-65
2023/07/31 08:19:58;;;;;;;5.80;5.30;;;;;;;28.06;58.79;96028.44;5113805;28;20075;-66
2023/07/31 08:22:26;;;;;;;5.90;5.07;;;;;;;28.03;57.94;96029.63;5113739;28;20054;-64
2023/07/31 08:24:53;;;;;;;5.95;5.43;;;;;;;28.04;57.21;96028.59;5113601;28;20280;-64
2023/07/31 08:27:20;;;;;;;6.03;5.53;;;;;;;27.90;55.26;96030.22;5113428;28;20417;-66
2023/07/31 08:29:48;;;;;;;5.57;5.10;;;;;;;27.68;53.94;96030.06;5113472;28;20211;-65
2023/07/31 08:32:15;;;;;;;5.85;5.30;;;;;;;27.44;54.44;96025.66;5113630;28;20043;-66
2023/07/31 08:34:44;;;;;;;5.78;5.28;;;;;;;27.24;53.92;96036.88;5113535;28;20051;-64
2023/07/31 08:37:12;;;;;;;6.28;5.78;;;;;;;27.15;57.82;96028.00;5113515;28;20048;-66
2023/07/31 08:39:40;;;;;;;6.60;6.00;;;;;;;27.06;59.79;96035.25;5112364;28;20462;-66
2023/07/31 08:42:10;;;;;;;6.75;6.20;;;;;;;27.03;61.93;96035.59;5113390;28;20051;-64
2023/07/31 08:44:39;;;;;;;6.65;6.10;;;;;;;26.97;61.57;96034.44;5113587;28;20054;-65
2023/07/31 08:47:07;;;;;;;7.90;6.80;;;;;;;26.93;61.13;96034.94;5113276;28;20087;-65
2023/07/31 08:49:36;;;;;;;7.60;6.70;;;;;;;26.91;61.11;96040.50;5113403;28;20044;-66
2023/07/31 08:52:05;;;;;;;6.57;5.32;;;;;;;26.88;59.32;96048.91;5113160;28;20138;-66
2023/07/31 08:54:33;;;;;;;6.47;5.80;;;;;;;26.85;58.14;96052.75;5113471;28;20050;-64
2023/07/31 08:57:02;;;;;;;6.07;5.15;;;;;;;26.56;58.50;96046.16;5113321;28;20074;-65
2023/07/31 08:59:31;;;;;;;5.97;5.43;;;;;;;26.37;59.64;96047.38;5113388;28;20075;-64
2023/07/31 09:02:04;;;;;;;5.30;4.90;;;;;;;26.39;59.27;96050.69;5113138;28;20549;-65
2023/07/31 09:04:32;;;;;;;6.35;5.13;;;;;;;26.43;59.40;96045.84;5113027;28;20048;-64
2023/07/31 09:07:03;;;;;;;5.72;4.90;;;;;;;26.47;58.28;96048.03;5113430;28;20055;-64
2023/07/31 09:09:31;;;;;;;;;;;;;;;26.36;58.04;96043.84;5113726;28;20043;-66
2023/07/31 09:11:59;;;;;;;5.93;5.35;;;;;;;26.34;59.46;96040.50;5113128;28;20040;-65
2023/07/31 09:14:27;;;;;;;5.07;4.57;;;;;;;26.59;61.66;96045.81;5113244;28;20405;-66
2023/07/31 09:16:56;;;;;;;6.07;5.30;;;;;;;26.93;57.47;96054.56;5113114;28;20066;-66
2023/07/31 09:19:28;;;;;;;6.28;5.15;;;;;;;27.16;56.75;96051.16;5113068;28;20059;-65
2023/07/31 09:21:55;;;;;;;5.78;4.90;;;;;;;27.28;55.89;96056.13;5113215;28;20043;-66
2023/07/31 09:24:32;;;;;;;7.55;5.07;;;;;;;27.04;56.80;96048.03;5113043;28;20123;-65
2023/07/31 09:27:01;;;;;;;5.80;5.15;;;;;;;27.02;58.28;96052.72;5113133;28;20100;-65
2023/07/31 09:29:30;;;;;;;6.15;4.88;;;;;;;27.43;58.36;96042.78;5113162;28;20047;-65
2023/07/31 09:31:59;;;;;;;5.10;4.60;;;;;;;27.63;57.48;96040.47;5112963;28;20051;-66
2023/07/31 09:34:32;;;;;;;8.77;4.63;;;;;;;27.88;56.69;96043.84;5113017;28;20051;-66
2023/07/31 09:37:06;;;;;;;5.25;4.75;;;;;;;27.85;51.85;96043.38;5112985;28;20540;-66
2023/07/31 09:39:47;;;;;;;5.18;4.45;;;;;;;27.93;50.83;96039.78;5112865;28;20439;-65
2023/07/31 09:42:28;;;;;;;4.75;4.35;;;;;;;28.01;48.87;96039.72;5112936;28;20048;-65
2023/07/31 09:45:11;;;;;;;5.05;4.20;;;;;;;28.30;49.52;96038.16;5112804;28;20055;-65
2023/07/31 09:47:38;;;;;;;4.82;4.28;;;;;;;28.70;49.17;96037.06;5112756;28;20570;-66
2023/07/31 09:50:10;;;;;;;4.60;4.20;;;;;;;29.09;45.65;96030.56;5113706;28;20089;-66
2023/07/31 09:52:40;;;;;;;7.50;4.60;;;;;;;29.16;46.23;96027.13;5116723;28;20086;-66
2023/07/31 09:55:10;;;;;;;;;;;;;;;29.18;44.94;96036.69;5117034;28;20048;-65
2023/07/31 09:57:41;;;;;;;4.70;4.10;;;;;;;29.19;45.66;96040.22;5116738;28;19919;-65
2023/07/31 10:00:10;;;;;;;5.47;4.07;;;;;;;28.71;43.88;96031.50;5116467;28;20765;-66
2023/07/31 10:02:39;;;;;;;5.50;3.72;;;;;;;28.37;45.71;96032.88;5116435;28;20052;-66
2023/07/31 10:05:09;;;;;;;5.00;4.50;;;;;;;28.09;46.04;96036.13;5115997;28;20062;-66
2023/07/31 10:07:40;;;;;;;5.15;4.55;;;;;;;28.16;47.41;96029.00;5116276;28;20062;-66
2023/07/31 10:10:10;;;;;;;5.05;4.57;;;;;;;28.40;46.66;96032.50;5116176;28;20474;-65
2023/07/31 10:12:38;;;;;;;5.20;4.80;;;;;;;28.58;45.60;96036.69;5116173;28;20054;-67
2023/07/31 10:15:08;;;;;;;5.35;4.82;;;;;;;28.36;44.63;96025.84;5116240;28;20532;-65
2023/07/31 10:17:37;;;;;;;5.25;4.72;;;;;;;28.37;47.36;96024.81;5116100;28;20039;-66
2023/07/31 10:20:06;;;;;;;9.80;4.97;;;;;;;28.44;47.61;96019.53;5115932;28;20130;-64
2023/07/31 10:22:35;;;;;;;4.95;4.55;;;;;;;28.41;47.05;96017.22;5115968;28;20076;-65
2023/07/31 10:25:03;;;;;;;5.45;4.95;;;;;;;28.27;45.54;96019.66;5115867;28;20050;-65
2023/07/31 10:27:32;;;;;;;5.05;4.55;;;;;;;28.13;46.69;96018.63;5115786;28;20532;-66
2023/07/31 10:30:01;;;;;;;8.75;5.28;;;;;;;28.17;48.39;96019.09;5115792;28;20121;-66
2023/07/31 10:32:30;;;;;;;5.43;4.93;;;;;;;28.40;46.69;96013.69;5115622;28;20060;-65
2023/07/31 10:34:58;;;;;;;5.45;4.95;;;;;;;28.59;46.02;96006.09;5115568;28;20090;-66
2023/07/31 10:37:27;;;;;;;5.65;5.15;;;;;;;28.88;47.99;96005.25;5115905;28;20075;-66
2023/07/31 10:40:02;;;;;;;4.90;4.50;;;;;;;29.22;45.43;96008.34;5115735;28;20120;-66
2023/07/31 10:42:33;;;;;;;6.00;4.80;;;;;;;29.40;44.41;96009.78;5115580;28;20059;-66
2023/07/31 10:45:02;;;;;;;7.43;4.90;;;;;;;29.64;42.26;96013.16;5115592;28;20576;-66
2023/07/31 10:47:30;;;;;;;5.13;4.63;;;;;;;29.76;42.94;96000.84;5115376;28;20043;-64
2023/07/31 10:50:14;;;;;;;7.53;4.70;;;;;;;29.99;43.04;96001.66;5115555;28;20040;-65
2023/07/31 10:52:41;;;;;;;5.18;4.55;;;;;;;30.03;41.80;95997.53;5115245;28;20134;-66
2023/07/31 10:55:27;;;;;;;5.22;4.72;;;;;;;30.18;40.71;95988.53;5115614;28;20059;-65
2023/07/31 10:57:58;;;;;;;5.43;4.85;;;;;;;30.27;42.12;95980.13;5115395;28;20475;-65
2023/07/31 11:00:29;;;;;;;6.07;4.78;;;;;;;30.41;41.20;95977.50;5115314;28;20040;-66
2023/07/31 11:03:01;;;;;;;6.88;4.78;;;;;;;30.51;43.09;95985.25;5113674;28;20051;-66
2023/07/31 11:05:50;;;;;;;4.90;4.18;;;;;;;30.57;37.73;95981.75;5114995;28;20048;-66
2023/07/31 11:08:20;;;;;;;4.80;4.20;;;;;;;30.08;40.13;95984.31;5115080;28;20039;-65
2023/07/31 11:10:48;;;;;;;;;;;;;;;29.70;39.73;95971.97;5115353;28;20051;-66
2023/07/31 11:13:17;;;;;;;5.70;4.32;;;;;;;29.70;39.57;95973.84;5114857;28;19919;-66
2023/07/31 11:15:44;;;;;;;10.27;4.28;;;;;;;29.70;39.80;95963.91;5114963;28;20075;-65
2023/07/31 11:18:12;;;;;;;6.45;4.20;;;;;;;29.82;40.94;95963.38;5114855;28;20054;-65
2023/07/31 11:20:41;;;;;;;4.57;4.18;;;;;;;29.79;41.82;95961.09;5114930;28;20096;-65
2023/07/31 11:23:10;;;;;;;4.80;4.30;;;;;;;30.01;41.60;95960.00;5114805;28;20097;-65
2023/07/31 11:25:41;;;;;;;4.90;4.50;;;;;;;30.21;41.03;95951.25;5114570;28;20481;-65
2023/07/31 11:28:11;;;;;;;5.15;4.63;;;;;;;30.24;40.25;95955.41;5114727;28;20052;-66
2023/07/31 11:30:41;;;;;;;5.88;4.55;;;;;;;30.31;40.76;95950.06;5114542;28;20458;-66
2023/07/31 11:33:11;;;;;;;6.18;4.80;;;;;;;30.08;40.02;95951.97;5114306;28;20493;-67
2023/07/31 11:35:47;;;;;;;4.57;4.18;;;;;;;29.70;42.34;95952.28;5114593;28;20044;-65
2023/07/31 11:38:23;;;;;;;7.65;4.63;;;;;;;29.48;40.66;95944.19;5114473;28;20097;-66
2023/07/31 11:40:52;;;;;;;5.80;4.40;;;;;;;29.45;42.29;95931.13;5114411;28;20485;-66